Latest Weather Observations for Merimbula

IDN60801

Issued at 11:32 pm EDT Monday 30 March 2015 (issued every 30 minutes, with the page automatically refreshed every 10 minutes)

About weather observations | Map of weather stations | Latest weather observations for NSW | Other Formats
Station Details ID: 069147 Name: MERIMBULA AIRPORT AWS Lat: -36.91 Lon: 149.90 Height: 1.5 m
Data from the previous 72 hours. | See also: Recent months at Merimbula
Date/Time
EDT
Temp
°C
App
Temp
°C
Dew
Point
Rel
Hum
%
Delta-T
°C
Wind Press
QNH
hPa
Press
MSL
hPa
Rain
since 9 am
mm
Dir
 
Spd
km/h
Gust
km/h
Spd
kts
Gust
kts
30/11:00pm 14.3 15.2 12.9 91 0.8 CALM 0 0 0 0 1026.3 1026.3 0.0
30/10:30pm 14.9 16.0 13.6 92 0.7 CALM 0 0 0 0 1026.3 1026.3 0.0
30/10:00pm 14.5 15.4 13.0 91 0.8 CALM 0 0 0 0 1026.3 1026.3 0.0
30/09:30pm 14.7 15.5 12.6 87 1.1 CALM 0 6 0 3 1026.1 1026.1 0.0
30/09:00pm 15.8 16.9 13.6 87 1.2 CALM 0 0 0 0 1026.1 1026.1 0.0
30/08:30pm 16.4 16.3 13.9 85 1.4 W 7 9 4 5 1025.9 1025.9 0.0
30/08:00pm 16.4 17.7 14.1 86 1.3 CALM 0 0 0 0 1025.5 1025.5 0.0
30/07:30pm 17.1 18.3 13.8 81 1.9 CALM 0 0 0 0 1025.0 1025.0 0.0
30/07:00pm 18.4 19.6 13.9 75 2.6 CALM 0 0 0 0 1024.6 1024.6 0.0
30/06:30pm 20.0 20.7 14.4 70 3.2 NE 4 7 2 4 1024.3 1024.3 0.0
30/06:00pm 20.9 20.9 14.1 65 3.9 NE 7 11 4 6 1023.8 1023.8 0.0
30/05:30pm 21.0 21.0 15.1 69 3.5 NE 9 11 5 6 1023.4 1023.4 0.0
30/05:00pm 21.2 21.2 15.1 68 3.6 E 9 15 5 8 1023.1 1023.1 0.0
30/04:30pm 21.8 21.0 15.2 66 3.9 ENE 13 17 7 9 1022.9 1022.9 0.0
30/04:00pm 22.4 21.3 15.3 64 4.2 ENE 15 20 8 11 1022.7 1022.7 0.0
30/03:30pm 22.8 21.8 15.6 64 4.3 ENE 15 20 8 11 1022.7 1022.7 0.0
30/03:00pm 22.1 20.9 15.0 64 4.2 ENE 15 20 8 11 1022.6 1022.6 0.0
30/02:30pm 22.1 20.9 15.0 64 4.2 ENE 15 20 8 11 1022.7 1022.7 0.0
30/02:00pm 23.0 21.5 15.3 62 4.6 ENE 17 24 9 13 1022.8 1022.8 0.0
30/01:30pm 22.9 21.4 15.2 62 4.6 ENE 17 22 9 12 1023.1 1023.1 0.0
30/01:00pm 22.0 20.7 14.9 64 4.2 E 15 20 8 11 1023.2 1023.2 0.0
30/12:30pm 22.3 21.2 15.2 64 4.2 ENE 15 20 8 11 1023.7 1023.7 0.0
30/12:00pm 22.4 21.0 14.5 61 4.6 E 15 20 8 11 1023.9 1023.9 0.0
30/11:30am 22.0 21.7 13.4 58 5.0 NW 7 13 4 7 1024.4 1024.4 0.0
30/11:00am 21.4 20.9 13.8 62 4.4 NW 9 15 5 8 1024.8 1024.8 0.0
30/10:30am 21.3 21.3 13.7 62 4.4 NW 6 15 3 8 1025.1 1025.1 0.0
30/10:00am 19.9 20.9 13.1 65 3.8 CALM 0 0 0 0 1025.1 1025.1 0.0
30/09:30am 17.5 18.4 13.0 75 2.5 CALM 0 0 0 0 1025.1 1025.1 0.0
30/09:00am 14.6 14.7 11.6 82 1.6 SW 2 9 1 5 1025.0 1025.0 0.0
30/08:30am 12.6 11.7 11.2 91 0.7 SW 7 9 4 5 1024.9 1024.9 0.0
30/08:00am 11.2 9.2 10.3 94 0.5 SW 11 13 6 7 1024.5 1024.5 0.0
30/07:30am 10.2 8.4 9.3 94 0.4 SW 9 11 5 6 1024.3 1024.3 0.0
30/07:00am 10.0 9.8 9.1 94 0.4 CALM 0 0 0 0 1024.0 1024.0 0.0
30/06:30am 10.5 10.4 9.6 94 0.5 CALM 0 0 0 0 1023.7 1023.7 0.0
30/06:00am 10.4 10.3 9.3 93 0.5 CALM 0 0 0 0 1023.4 1023.4 0.0
30/05:30am 10.5 10.4 9.4 93 0.5 CALM 0 0 0 0 1023.3 1023.3 0.0
30/05:00am 10.6 10.5 9.5 93 0.5 CALM 0 0 0 0 1023.2 1023.2 0.0
30/04:30am 11.0 11.1 10.1 94 0.5 CALM 0 0 0 0 1023.1 1023.1 0.0
30/04:00am 10.9 10.9 9.8 93 0.6 CALM 0 0 0 0 1023.2 1023.2 0.0
30/03:30am 11.0 11.0 9.8 92 0.6 CALM 0 0 0 0 1023.4 1023.4 0.0
30/03:00am 11.3 11.4 10.0 92 0.7 CALM 0 0 0 0 1023.6 1023.6 0.0
30/02:30am 11.3 11.4 10.0 92 0.7 CALM 0 0 0 0 1023.7 1023.7 0.0
30/02:00am 11.2 11.2 9.8 91 0.7 CALM 0 0 0 0 1024.0 1024.0 0.0
30/01:30am 11.8 12.0 10.4 91 0.7 CALM 0 0 0 0 1023.9 1023.9 0.0
30/01:00am 11.7 11.7 9.9 89 0.9 CALM 0 0 0 0 1023.9 1023.9 0.0
30/12:30am 12.2 12.4 10.6 90 0.8 CALM 0 0 0 0 1024.0 1024.0 0.0
30/12:00am 12.5 12.9 11.1 91 0.7 CALM 0 0 0 0 1024.0 1024.0 0.0
 
Date/Time
EDT
Temp
°C
App
Temp
°C
Dew
Point
Rel
Hum
%
Delta-T
°C
Wind Press
QNH
hPa
Press
MSL
hPa
Rain
since 9 am
mm
Dir
 
Spd
km/h
Gust
km/h
Spd
kts
Gust
kts
29/11:30pm 12.2 12.4 10.4 89 0.9 CALM 0 0 0 0 1024.1 1024.1 0.0
29/11:00pm 12.4 12.7 10.8 90 0.8 CALM 0 0 0 0 1024.1 1024.1 0.0
29/10:30pm 12.4 12.5 10.3 87 1.1 CALM 0 0 0 0 1024.1 1024.1 0.0
29/10:00pm 12.9 12.9 9.9 82 1.5 CALM 0 0 0 0 1024.0 1024.0 0.0
29/09:30pm 13.6 13.9 10.8 83 1.5 CALM 0 0 0 0 1023.8 1023.8 0.0
29/09:00pm 14.0 14.3 10.8 81 1.7 CALM 0 0 0 0 1023.5 1023.5 0.0
29/08:30pm 15.2 15.3 11.6 79 1.9 NW 2 7 1 4 1023.0 1023.0 0.0
29/08:00pm 16.5 15.8 12.1 75 2.4 SW 7 9 4 5 1022.5 1022.5 0.0
29/07:30pm 18.2 17.7 12.0 67 3.4 S 6 13 3 7 1022.2 1022.2 0.0
29/07:00pm 19.3 17.7 11.6 61 4.2 SE 11 17 6 9 1021.8 1021.8 0.0
29/06:30pm 20.1 18.1 11.6 58 4.7 SE 13 20 7 11 1021.5 1021.5 0.0
29/06:00pm 20.8 18.8 11.4 55 5.2 SE 13 19 7 10 1021.2 1021.2 0.0
29/05:30pm 21.3 19.6 12.4 57 5.0 SE 13 19 7 10 1021.0 1021.0 0.0
29/05:00pm 21.8 20.2 12.9 57 5.1 ESE 13 19 7 10 1020.8 1020.8 0.0
29/04:30pm 22.4 21.5 13.7 58 5.0 ESE 11 19 6 10 1020.7 1020.7 0.0
29/04:00pm 22.1 20.4 13.5 58 5.0 ESE 15 24 8 13 1020.7 1020.7 0.0
29/03:30pm 22.7 20.9 13.2 55 5.5 E 15 20 8 11 1020.9 1020.9 0.0
29/03:00pm 22.6 21.1 13.1 55 5.4 E 13 20 7 11 1020.8 1020.8 0.0
29/02:30pm 22.9 21.5 13.4 55 5.5 E 13 22 7 12 1021.0 1021.0 0.0
29/02:00pm 22.8 21.4 13.3 55 5.5 E 13 19 7 10 1021.4 1021.4 0.0
29/01:30pm 22.7 20.5 12.0 50 6.0 E 15 22 8 12 1021.6 1021.6 0.0
29/01:00pm 22.6 20.5 12.3 52 5.8 E 15 24 8 13 1021.8 1021.8 0.0
29/12:30pm 22.2 19.9 11.6 51 5.9 E 15 20 8 11 1022.2 1022.2 0.0
29/12:00pm 21.6 19.7 11.9 54 5.4 ESE 13 20 7 11 1022.5 1022.5 0.0
29/11:30am 21.2 19.5 12.6 58 4.9 ESE 13 19 7 10 1022.6 1022.6 0.0
29/11:00am 21.1 19.7 12.3 57 4.9 E 11 19 6 10 1022.7 1022.7 0.0
29/10:30am 20.5 20.3 10.6 53 5.4 SE 2 13 1 7 1022.7 1022.7 0.0
29/10:00am 18.9 19.2 11.0 60 4.3 CALM 0 0 0 0 1022.6 1022.6 0.0
29/09:30am 16.9 16.0 11.2 69 3.1 NNW 7 9 4 5 1022.4 1022.4 0.0
29/09:00am 14.3 14.8 11.5 83 1.5 CALM 0 0 0 0 1022.1 1022.1 0.0
29/08:30am 13.0 11.8 11.7 92 0.7 NW 9 13 5 7 1022.1 1022.1 0.0
29/08:00am 10.6 9.8 9.8 95 0.4 SSW 4 9 2 5 1022.0 1022.0 0.0
29/07:30am 9.6 8.0 8.8 95 0.4 WSW 7 7 4 4 1021.5 1021.5 0.0
29/07:00am 9.8 8.3 9.0 95 0.4 SW 7 9 4 5 1021.3 1021.3 0.0
29/06:30am 9.3 7.7 8.2 93 0.5 WSW 6 7 3 4 1021.1 1021.1 0.0
29/06:00am 9.7 8.2 8.6 93 0.5 SW 6 7 3 4 1020.9 1020.9 0.0
29/05:30am 10.3 9.4 9.4 94 0.4 SW 4 9 2 5 1020.8 1020.8 0.0
29/05:00am 10.4 10.3 9.5 94 0.4 CALM 0 0 0 0 1020.8 1020.8 0.0
29/04:30am 10.6 10.5 9.5 93 0.6 CALM 0 0 0 0 1020.8 1020.8 0.0
29/04:00am 10.9 10.9 9.7 92 0.6 CALM 0 0 0 0 1021.0 1021.0 0.0
29/03:30am 11.4 11.5 10.1 92 0.7 CALM 0 0 0 0 1021.4 1021.4 0.0
29/03:00am 11.6 11.1 9.5 87 1.1 SW 2 6 1 3 1021.6 1021.6 0.0
29/02:30am 12.4 11.3 10.6 89 0.9 SSW 7 9 4 5 1021.9 1021.9 0.0
29/02:00am 12.5 11.4 10.7 89 0.9 SSW 7 9 4 5 1022.1 1022.1 0.0
29/01:30am 12.8 13.1 10.9 88 1.0 CALM 0 0 0 0 1022.4 1022.4 0.0
29/01:00am 13.4 13.8 11.1 86 1.2 CALM 0 0 0 0 1022.6 1022.6 0.0
29/12:30am 14.0 14.4 11.3 84 1.4 CALM 0 0 0 0 1022.8 1022.8 0.0
29/12:00am 13.9 14.3 11.2 84 1.4 CALM 0 0 0 0 1023.1 1023.1 0.0
 
Date/Time
EDT
Temp
°C
App
Temp
°C
Dew
Point
Rel
Hum
%
Delta-T
°C
Wind Press
QNH
hPa
Press
MSL
hPa
Rain
since 9 am
mm
Dir
 
Spd
km/h
Gust
km/h
Spd
kts
Gust
kts
28/11:30pm 14.4 14.8 11.4 82 1.6 CALM 0 0 0 0 1023.1 1023.1 0.0
28/11:00pm 14.8 15.4 11.8 82 1.6 CALM 0 0 0 0 1023.3 1023.3 0.0
28/10:30pm 14.7 15.2 11.5 81 1.7 CALM 0 0 0 0 1023.5 1023.5 0.0
28/10:00pm 14.5 15.1 11.8 84 1.4 CALM 0 0 0 0 1023.6 1023.6 0.0
28/09:30pm 14.1 14.5 11.3 83 1.5 CALM 0 0 0 0 1023.4 1023.4 0.0
28/09:00pm 15.0 15.5 11.6 80 1.8 CALM 0 0 0 0 1023.3 1023.3 0.0
28/08:30pm 15.8 16.1 11.0 73 2.6 CALM 0 0 0 0 1023.1 1023.1 0.0
28/08:00pm 17.1 15.9 11.6 70 3.0 SSE 9 13 5 7 1022.8 1022.8 0.0
28/07:30pm 17.6 16.0 11.4 67 3.4 SE 11 20 6 11 1022.3 1022.3 0.0
28/07:00pm 17.9 16.7 11.5 66 3.5 ESE 9 15 5 8 1022.3 1022.3 0.0
28/06:30pm 18.4 17.3 11.9 66 3.6 E 9 15 5 8 1022.1 1022.1 0.0
28/06:00pm 19.3 18.4 12.6 65 3.7 E 9 15 5 8 1021.9 1021.9 0.0
28/05:30pm 19.9 18.1 12.2 61 4.3 E 13 19 7 10 1021.7 1021.7 0.0
28/05:00pm 20.4 18.9 11.9 58 4.7 E 11 17 6 9 1021.6 1021.6 0.0
28/04:30pm 20.8 19.2 12.8 60 4.5 ESE 13 24 7 13 1021.6 1021.6 0.0
28/04:00pm 21.5 19.9 12.9 58 4.9 E 13 20 7 11 1021.5 1021.5 0.0
28/03:30pm 20.9 18.5 11.3 54 5.3 E 15 26 8 14 1021.5 1021.5 0.0
28/03:00pm 21.5 19.0 10.9 51 5.8 E 15 26 8 14 1021.6 1021.6 0.0
28/02:30pm 20.8 17.5 10.9 53 5.4 E 19 28 10 15 1021.7 1021.7 0.0
28/02:00pm 22.4 19.0 9.2 43 7.0 ESE 17 22 9 12 1021.7 1021.7 0.0
28/01:30pm 22.4 19.1 9.6 44 6.9 E 17 26 9 14 1022.0 1022.0 0.0
28/01:00pm 22.0 19.4 9.2 44 6.8 E 13 20 7 11 1022.3 1022.3 0.0
28/12:30pm 22.0 19.7 7.4 39 7.5 SSW 9 20 5 11 1022.8 1022.8 0.0
28/12:00pm 21.1 17.6 7.3 41 7.1 SSW 15 20 8 11 1023.0 1023.0 0.0
28/11:30am 20.8 18.1 7.4 42 6.9 SSW 11 19 6 10 1023.1 1023.1 0.0
28/11:00am 19.7 17.2 6.4 42 6.6 W 9 15 5 8 1023.3 1023.3 0.0
28/10:30am 19.3 16.5 6.8 44 6.3 WSW 11 19 6 10 1023.5 1023.5 0.0
28/10:00am 18.4 15.1 6.6 46 5.8 W 13 24 7 13 1023.5 1023.5 0.0
28/09:30am 17.6 14.3 6.5 48 5.5 W 13 19 7 10 1023.6 1023.6 0.0
28/09:00am 16.5 13.6 6.6 52 4.8 WNW 11 17 6 9 1023.4 1023.4 -
28/08:30am 14.4 12.1 7.5 63 3.4 WNW 9 13 5 7 1023.2 1023.2 -
28/08:00am 9.7 9.0 6.8 82 1.4 CALM 0 0 0 0 1022.9 1022.9 -
28/07:30am 9.5 8.6 5.9 78 1.6 CALM 0 0 0 0 1022.6 1022.6 -
28/07:00am 11.0 10.2 6.6 74 2.1 CALM 0 0 0 0 1022.1 1022.1 -
28/06:30am 12.5 9.2 6.3 66 2.9 WNW 13 15 7 8 1021.8 1021.8 -
28/06:00am 13.0 10.5 6.4 64 3.1 WNW 9 13 5 7 1021.6 1021.6 -
28/05:30am 14.4 10.6 6.0 57 4.0 W 15 20 8 11 1021.2 1021.2 -
28/05:00am 14.5 11.1 6.1 57 4.0 W 13 20 7 11 1021.1 1021.1 -
28/04:30am 14.7 11.8 6.3 57 4.0 WSW 11 15 6 8 1020.8 1020.8 -
28/04:00am 14.9 11.7 7.0 59 3.9 WNW 13 19 7 10 1020.6 1020.6 -
28/03:30am 14.9 11.3 6.7 58 4.0 W 15 22 8 12 1020.5 1020.5 -
28/03:00am 13.9 10.7 6.7 62 3.5 W 13 19 7 10 1020.5 1020.5 -
28/02:30am 14.4 11.8 7.7 64 3.3 NW 11 15 6 8 1020.7 1020.7 -
28/02:00am 13.8 11.5 7.6 66 3.0 NNW 9 13 5 7 1020.6 1020.6 -
28/01:30am 14.3 11.5 7.1 62 3.5 NW 11 13 6 7 1020.5 1020.5 -
28/01:00am 15.0 - 6.8 58 4.0 - - - - - 1020.4 1020.4 -
28/12:00am 15.6 12.4 6.9 56 4.3 WSW 13 19 7 10 1020.4 1020.4 0.0

Other Formats:

Comma delimited format used in spreadsheet applications
http://www.bom.gov.au/fwo/IDN60801/IDN60801.95929.axf

JavaScript Object Notation format (JSON) in row-major order
http://www.bom.gov.au/fwo/IDN60801/IDN60801.95929.json